sensor_id;sensor_type;location;lat;lon;timestamp;P1;durP1;ratioP1;P2;durP2;ratioP2
21233;SDS011;10774;42.178;26.578;2022-08-11T14:05:47;3.63;;;1.00;;
21233;SDS011;10774;42.178;26.578;2022-08-11T14:08:17;3.25;;;0.93;;
21233;SDS011;10774;42.178;26.578;2022-08-11T14:10:48;2.13;;;1.20;;
21233;SDS011;10774;42.178;26.578;2022-08-11T14:13:41;2.47;;;1.13;;
21233;SDS011;10774;42.178;26.578;2022-08-11T14:16:15;2.95;;;1.10;;
21233;SDS011;10774;42.178;26.578;2022-08-11T14:18:44;5.82;;;0.98;;
21233;SDS011;10774;42.178;26.578;2022-08-11T14:21:14;4.47;;;1.30;;
21233;SDS011;10774;42.178;26.578;2022-08-11T14:24:00;1.20;;;0.80;;
21233;SDS011;10774;42.178;26.578;2022-08-11T14:26:28;3.63;;;1.27;;
21233;SDS011;10774;42.178;26.578;2022-08-11T14:28:57;1.75;;;0.98;;
21233;SDS011;10774;42.178;26.578;2022-08-11T14:31:31;1.58;;;1.08;;
21233;SDS011;10774;42.178;26.578;2022-08-11T14:34:00;3.13;;;1.00;;
21233;SDS011;10774;42.178;26.578;2022-08-11T14:36:31;2.13;;;0.93;;
21233;SDS011;10774;42.178;26.578;2022-08-11T14:39:03;2.63;;;0.80;;
21233;SDS011;10774;42.178;26.578;2022-08-11T14:41:40;2.05;;;0.90;;
21233;SDS011;10774;42.178;26.578;2022-08-11T14:44:27;1.20;;;0.95;;
21233;SDS011;10774;42.178;26.578;2022-08-11T14:47:13;2.03;;;0.80;;
21233;SDS011;10774;42.178;26.578;2022-08-11T14:49:40;2.33;;;0.98;;
21233;SDS011;10774;42.178;26.578;2022-08-11T14:52:07;1.15;;;0.88;;
21233;SDS011;10774;42.178;26.578;2022-08-11T14:54:35;1.10;;;0.82;;
21233;SDS011;10774;42.178;26.578;2022-08-11T14:57:20;3.50;;;1.05;;
21233;SDS011;10774;42.178;26.578;2022-08-11T14:59:47;3.95;;;1.00;;
21233;SDS011;10774;42.178;26.578;2022-08-11T15:02:15;1.50;;;0.80;;
21233;SDS011;10774;42.178;26.578;2022-08-11T15:05:00;3.15;;;1.25;;
21233;SDS011;10774;42.178;26.578;2022-08-11T15:07:28;2.53;;;1.10;;
21233;SDS011;10774;42.178;26.578;2022-08-11T15:10:01;2.88;;;1.05;;
21233;SDS011;10774;42.178;26.578;2022-08-11T15:12:28;2.88;;;0.98;;
21233;SDS011;10774;42.178;26.578;2022-08-11T15:14:55;1.95;;;0.80;;
21233;SDS011;10774;42.178;26.578;2022-08-11T15:17:40;1.88;;;1.20;;
21233;SDS011;10774;42.178;26.578;2022-08-11T15:20:12;2.83;;;1.10;;
21233;SDS011;10774;42.178;26.578;2022-08-11T15:22:58;3.70;;;1.27;;
21233;SDS011;10774;42.178;26.578;2022-08-11T15:25:42;2.10;;;0.80;;
21233;SDS011;10774;42.178;26.578;2022-08-11T15:28:14;2.67;;;0.85;;
21233;SDS011;10774;42.178;26.578;2022-08-11T15:31:00;2.67;;;1.17;;
21233;SDS011;10774;42.178;26.578;2022-08-11T15:34:06;3.42;;;1.23;;
21233;SDS011;10774;42.178;26.578;2022-08-11T15:36:54;1.83;;;1.02;;
21233;SDS011;10774;42.178;26.578;2022-08-11T15:43:09;3.63;;;1.05;;
21233;SDS011;10774;42.178;26.578;2022-08-11T15:45:58;1.55;;;1.17;;
21233;SDS011;10774;42.178;26.578;2022-08-11T15:48:29;2.75;;;1.10;;
21233;SDS011;10774;42.178;26.578;2022-08-11T15:56:06;4.57;;;1.27;;
21233;SDS011;10774;42.178;26.578;2022-08-11T15:58:35;2.28;;;1.20;;
21233;SDS011;10774;42.178;26.578;2022-08-11T16:01:26;5.68;;;1.50;;
21233;SDS011;10774;42.178;26.578;2022-08-11T16:04:15;2.47;;;1.40;;
21233;SDS011;10774;42.178;26.578;2022-08-11T16:06:44;4.68;;;1.17;;
21233;SDS011;10774;42.178;26.578;2022-08-11T16:09:16;4.97;;;1.80;;
21233;SDS011;10774;42.178;26.578;2022-08-11T16:11:45;3.55;;;1.63;;
21233;SDS011;10774;42.178;26.578;2022-08-11T16:14:13;4.18;;;2.67;;
21233;SDS011;10774;42.178;26.578;2022-08-11T16:17:12;3.35;;;2.80;;
21233;SDS011;10774;42.178;26.578;2022-08-11T16:19:41;4.57;;;1.98;;
21233;SDS011;10774;42.178;26.578;2022-08-11T16:22:09;4.45;;;1.73;;
21233;SDS011;10774;42.178;26.578;2022-08-11T16:24:37;2.85;;;1.45;;
21233;SDS011;10774;42.178;26.578;2022-08-11T16:27:09;2.72;;;1.30;;
21233;SDS011;10774;42.178;26.578;2022-08-11T16:29:36;3.10;;;1.70;;
21233;SDS011;10774;42.178;26.578;2022-08-11T16:32:14;3.50;;;1.58;;
21233;SDS011;10774;42.178;26.578;2022-08-11T16:34:43;2.30;;;1.33;;
21233;SDS011;10774;42.178;26.578;2022-08-11T16:37:30;2.55;;;1.05;;
21233;SDS011;10774;42.178;26.578;2022-08-11T16:40:16;4.93;;;1.33;;
21233;SDS011;10774;42.178;26.578;2022-08-11T16:42:45;3.95;;;1.40;;
21233;SDS011;10774;42.178;26.578;2022-08-11T16:45:30;2.03;;;1.42;;
21233;SDS011;10774;42.178;26.578;2022-08-11T16:48:16;2.75;;;1.38;;
21233;SDS011;10774;42.178;26.578;2022-08-11T16:50:42;5.38;;;2.67;;
21233;SDS011;10774;42.178;26.578;2022-08-11T16:53:09;3.38;;;2.28;;
21233;SDS011;10774;42.178;26.578;2022-08-11T16:55:35;3.15;;;1.60;;
21233;SDS011;10774;42.178;26.578;2022-08-11T16:58:02;5.50;;;3.60;;
21233;SDS011;10774;42.178;26.578;2022-08-11T17:00:48;6.05;;;2.03;;
21233;SDS011;10774;42.178;26.578;2022-08-11T17:03:15;5.97;;;1.33;;
21233;SDS011;10774;42.178;26.578;2022-08-11T17:06:01;1.60;;;1.40;;
21233;SDS011;10774;42.178;26.578;2022-08-11T17:08:47;3.88;;;1.80;;
21233;SDS011;10774;42.178;26.578;2022-08-11T17:11:39;3.83;;;2.00;;
21233;SDS011;10774;42.178;26.578;2022-08-11T17:14:38;3.85;;;2.53;;
21233;SDS011;10774;42.178;26.578;2022-08-11T17:17:05;4.30;;;1.80;;
21233;SDS011;10774;42.178;26.578;2022-08-11T17:19:43;2.83;;;1.80;;
21233;SDS011;10774;42.178;26.578;2022-08-11T17:22:14;4.55;;;2.38;;
21233;SDS011;10774;42.178;26.578;2022-08-11T17:25:00;3.63;;;2.10;;
21233;SDS011;10774;42.178;26.578;2022-08-11T17:27:29;6.25;;;3.38;;
21233;SDS011;10774;42.178;26.578;2022-08-11T17:29:57;17.73;;;15.40;;
21233;SDS011;10774;42.178;26.578;2022-08-11T17:32:29;18.73;;;13.40;;
21233;SDS011;10774;42.178;26.578;2022-08-11T17:35:18;6.70;;;3.20;;
21233;SDS011;10774;42.178;26.578;2022-08-11T17:37:59;4.60;;;3.30;;
21233;SDS011;10774;42.178;26.578;2022-08-11T17:40:25;3.92;;;2.10;;
21233;SDS011;10774;42.178;26.578;2022-08-11T17:42:51;2.85;;;1.70;;
21233;SDS011;10774;42.178;26.578;2022-08-11T17:48:25;3.20;;;2.00;;
21233;SDS011;10774;42.178;26.578;2022-08-11T17:50:53;6.45;;;1.90;;
21233;SDS011;10774;42.178;26.578;2022-08-11T17:53:20;6.28;;;2.17;;
21233;SDS011;10774;42.178;26.578;2022-08-11T17:56:05;8.43;;;2.00;;
21233;SDS011;10774;42.178;26.578;2022-08-11T17:58:58;7.50;;;1.80;;
21233;SDS011;10774;42.178;26.578;2022-08-11T18:01:43;2.20;;;1.60;;
21233;SDS011;10774;42.178;26.578;2022-08-11T18:04:11;3.97;;;1.50;;
21233;SDS011;10774;42.178;26.578;2022-08-11T18:06:38;4.78;;;2.10;;
21233;SDS011;10774;42.178;26.578;2022-08-11T18:09:16;3.13;;;1.40;;
21233;SDS011;10774;42.178;26.578;2022-08-11T18:12:03;4.47;;;1.45;;
21233;SDS011;10774;42.178;26.578;2022-08-11T18:14:50;3.22;;;1.80;;
21233;SDS011;10774;42.178;26.578;2022-08-11T18:17:36;4.88;;;2.00;;
21233;SDS011;10774;42.178;26.578;2022-08-11T18:20:20;4.40;;;1.80;;
21233;SDS011;10774;42.178;26.578;2022-08-11T18:23:08;6.47;;;1.70;;
21233;SDS011;10774;42.178;26.578;2022-08-11T18:26:01;5.60;;;1.90;;
21233;SDS011;10774;42.178;26.578;2022-08-11T18:28:49;4.45;;;1.65;;
21233;SDS011;10774;42.178;26.578;2022-08-11T18:31:43;2.50;;;1.98;;
21233;SDS011;10774;42.178;26.578;2022-08-11T18:34:35;6.40;;;2.30;;
21233;SDS011;10774;42.178;26.578;2022-08-11T18:37:24;5.53;;;2.30;;
21233;SDS011;10774;42.178;26.578;2022-08-11T18:40:15;7.63;;;2.10;;
21233;SDS011;10774;42.178;26.578;2022-08-11T18:43:03;2.78;;;1.60;;
21233;SDS011;10774;42.178;26.578;2022-08-11T18:45:49;3.00;;;1.40;;
21233;SDS011;10774;42.178;26.578;2022-08-11T18:48:36;7.40;;;1.40;;
21233;SDS011;10774;42.178;26.578;2022-08-11T18:51:24;2.63;;;1.30;;
21233;SDS011;10774;42.178;26.578;2022-08-11T18:54:10;2.47;;;1.45;;
21233;SDS011;10774;42.178;26.578;2022-08-11T18:56:55;5.28;;;1.50;;
21233;SDS011;10774;42.178;26.578;2022-08-11T18:59:43;4.32;;;1.48;;
21233;SDS011;10774;42.178;26.578;2022-08-11T19:02:29;3.17;;;1.38;;
21233;SDS011;10774;42.178;26.578;2022-08-11T19:05:18;3.72;;;1.40;;
21233;SDS011;10774;42.178;26.578;2022-08-11T19:08:03;3.60;;;1.70;;
21233;SDS011;10774;42.178;26.578;2022-08-11T19:10:50;2.95;;;1.38;;
21233;SDS011;10774;42.178;26.578;2022-08-11T19:13:34;3.70;;;1.50;;
21233;SDS011;10774;42.178;26.578;2022-08-11T19:16:21;4.68;;;1.73;;
21233;SDS011;10774;42.178;26.578;2022-08-11T19:19:08;1.90;;;1.30;;
21233;SDS011;10774;42.178;26.578;2022-08-11T19:21:52;5.73;;;1.73;;
21233;SDS011;10774;42.178;26.578;2022-08-11T19:24:38;4.28;;;1.42;;
21233;SDS011;10774;42.178;26.578;2022-08-11T19:27:23;3.28;;;1.73;;
21233;SDS011;10774;42.178;26.578;2022-08-11T19:30:10;8.25;;;1.63;;
21233;SDS011;10774;42.178;26.578;2022-08-11T19:32:55;1.85;;;1.25;;
21233;SDS011;10774;42.178;26.578;2022-08-11T19:35:40;4.07;;;1.73;;
21233;SDS011;10774;42.178;26.578;2022-08-11T19:38:26;7.43;;;1.83;;
21233;SDS011;10774;42.178;26.578;2022-08-11T19:41:12;4.68;;;1.60;;
21233;SDS011;10774;42.178;26.578;2022-08-11T19:43:57;9.93;;;2.03;;
21233;SDS011;10774;42.178;26.578;2022-08-11T19:46:43;6.93;;;1.70;;
21233;SDS011;10774;42.178;26.578;2022-08-11T19:49:28;3.70;;;1.40;;
21233;SDS011;10774;42.178;26.578;2022-08-11T19:52:13;5.40;;;2.00;;
21233;SDS011;10774;42.178;26.578;2022-08-11T19:54:58;5.63;;;1.60;;
21233;SDS011;10774;42.178;26.578;2022-08-11T19:57:44;7.60;;;2.22;;
21233;SDS011;10774;42.178;26.578;2022-08-11T20:00:29;3.63;;;1.50;;
21233;SDS011;10774;42.178;26.578;2022-08-11T20:03:13;10.13;;;1.70;;
21233;SDS011;10774;42.178;26.578;2022-08-11T20:05:59;2.95;;;1.80;;
21233;SDS011;10774;42.178;26.578;2022-08-11T20:08:46;4.45;;;1.52;;
21233;SDS011;10774;42.178;26.578;2022-08-11T20:11:35;7.88;;;1.60;;
21233;SDS011;10774;42.178;26.578;2022-08-11T20:14:21;4.10;;;1.60;;
21233;SDS011;10774;42.178;26.578;2022-08-11T20:17:09;3.40;;;1.42;;
21233;SDS011;10774;42.178;26.578;2022-08-11T20:19:55;5.70;;;1.60;;
21233;SDS011;10774;42.178;26.578;2022-08-11T20:22:42;3.22;;;1.60;;
21233;SDS011;10774;42.178;26.578;2022-08-11T20:25:28;5.10;;;1.52;;
21233;SDS011;10774;42.178;26.578;2022-08-11T20:28:12;7.55;;;1.67;;
21233;SDS011;10774;42.178;26.578;2022-08-11T20:30:59;4.25;;;1.58;;
21233;SDS011;10774;42.178;26.578;2022-08-11T20:33:45;3.63;;;1.67;;
21233;SDS011;10774;42.178;26.578;2022-08-11T20:36:30;5.25;;;1.50;;
21233;SDS011;10774;42.178;26.578;2022-08-11T20:42:00;2.83;;;1.33;;
21233;SDS011;10774;42.178;26.578;2022-08-11T20:44:46;6.65;;;1.60;;
21233;SDS011;10774;42.178;26.578;2022-08-11T20:47:33;5.25;;;1.90;;
21233;SDS011;10774;42.178;26.578;2022-08-11T20:50:21;3.33;;;1.40;;
21233;SDS011;10774;42.178;26.578;2022-08-11T20:53:06;3.03;;;1.70;;
21233;SDS011;10774;42.178;26.578;2022-08-11T20:55:53;7.07;;;1.75;;
21233;SDS011;10774;42.178;26.578;2022-08-11T20:58:38;2.67;;;1.30;;
21233;SDS011;10774;42.178;26.578;2022-08-11T21:01:22;3.90;;;1.45;;
21233;SDS011;10774;42.178;26.578;2022-08-11T21:04:07;4.43;;;1.83;;
21233;SDS011;10774;42.178;26.578;2022-08-11T21:06:51;5.38;;;1.77;;
21233;SDS011;10774;42.178;26.578;2022-08-11T21:09:36;4.30;;;1.83;;
21233;SDS011;10774;42.178;26.578;2022-08-11T21:12:22;4.25;;;1.67;;
21233;SDS011;10774;42.178;26.578;2022-08-11T21:15:08;4.80;;;2.08;;
21233;SDS011;10774;42.178;26.578;2022-08-11T21:17:53;2.13;;;1.50;;
21233;SDS011;10774;42.178;26.578;2022-08-11T21:20:40;4.53;;;1.80;;
21233;SDS011;10774;42.178;26.578;2022-08-11T21:23:27;3.67;;;1.67;;
21233;SDS011;10774;42.178;26.578;2022-08-11T21:26:15;6.30;;;1.90;;
21233;SDS011;10774;42.178;26.578;2022-08-11T21:29:02;7.07;;;1.70;;
21233;SDS011;10774;42.178;26.578;2022-08-11T21:31:50;3.15;;;1.92;;
21233;SDS011;10774;42.178;26.578;2022-08-11T21:34:36;3.90;;;1.75;;
21233;SDS011;10774;42.178;26.578;2022-08-11T21:37:24;2.38;;;1.50;;
21233;SDS011;10774;42.178;26.578;2022-08-11T21:40:08;9.93;;;2.28;;
21233;SDS011;10774;42.178;26.578;2022-08-11T21:42:53;5.63;;;2.13;;
21233;SDS011;10774;42.178;26.578;2022-08-11T21:45:40;7.00;;;1.73;;
21233;SDS011;10774;42.178;26.578;2022-08-11T21:48:26;2.83;;;2.00;;
21233;SDS011;10774;42.178;26.578;2022-08-11T21:51:12;5.65;;;1.85;;
21233;SDS011;10774;42.178;26.578;2022-08-11T21:53:56;9.15;;;1.75;;
21233;SDS011;10774;42.178;26.578;2022-08-11T21:56:43;3.28;;;1.70;;
21233;SDS011;10774;42.178;26.578;2022-08-11T22:00:03;4.25;;;1.95;;
21233;SDS011;10774;42.178;26.578;2022-08-11T22:02:44;5.63;;;1.77;;
21233;SDS011;10774;42.178;26.578;2022-08-11T22:05:30;6.07;;;1.80;;
21233;SDS011;10774;42.178;26.578;2022-08-11T22:08:15;4.70;;;1.60;;
21233;SDS011;10774;42.178;26.578;2022-08-11T22:10:59;6.50;;;2.05;;
21233;SDS011;10774;42.178;26.578;2022-08-11T22:13:44;4.20;;;1.80;;
21233;SDS011;10774;42.178;26.578;2022-08-11T22:16:28;6.38;;;1.75;;
21233;SDS011;10774;42.178;26.578;2022-08-11T22:19:12;4.53;;;1.67;;
21233;SDS011;10774;42.178;26.578;2022-08-11T22:21:58;2.05;;;1.60;;
21233;SDS011;10774;42.178;26.578;2022-08-11T22:24:43;2.55;;;1.55;;
21233;SDS011;10774;42.178;26.578;2022-08-11T22:27:28;2.90;;;1.58;;
21233;SDS011;10774;42.178;26.578;2022-08-11T22:30:12;3.60;;;1.50;;
21233;SDS011;10774;42.178;26.578;2022-08-11T22:32:58;4.18;;;1.83;;
21233;SDS011;10774;42.178;26.578;2022-08-11T22:35:44;4.13;;;1.75;;
21233;SDS011;10774;42.178;26.578;2022-08-11T22:38:30;3.97;;;1.60;;
21233;SDS011;10774;42.178;26.578;2022-08-11T22:41:16;4.60;;;1.60;;
21233;SDS011;10774;42.178;26.578;2022-08-11T22:44:01;5.80;;;1.50;;
21233;SDS011;10774;42.178;26.578;2022-08-11T22:46:46;9.87;;;1.93;;
21233;SDS011;10774;42.178;26.578;2022-08-11T22:49:32;3.33;;;1.67;;
21233;SDS011;10774;42.178;26.578;2022-08-11T22:52:19;4.07;;;1.70;;
21233;SDS011;10774;42.178;26.578;2022-08-11T22:57:49;5.18;;;1.58;;
21233;SDS011;10774;42.178;26.578;2022-08-11T23:00:34;6.17;;;1.87;;
21233;SDS011;10774;42.178;26.578;2022-08-11T23:03:19;2.67;;;1.92;;
21233;SDS011;10774;42.178;26.578;2022-08-11T23:06:03;6.82;;;1.73;;
21233;SDS011;10774;42.178;26.578;2022-08-11T23:08:48;2.47;;;1.95;;
21233;SDS011;10774;42.178;26.578;2022-08-11T23:11:33;2.20;;;1.75;;
21233;SDS011;10774;42.178;26.578;2022-08-11T23:14:19;2.80;;;1.70;;
21233;SDS011;10774;42.178;26.578;2022-08-11T23:19:47;3.05;;;1.80;;
21233;SDS011;10774;42.178;26.578;2022-08-11T23:22:32;3.75;;;1.80;;
21233;SDS011;10774;42.178;26.578;2022-08-11T23:25:16;5.97;;;2.22;;
21233;SDS011;10774;42.178;26.578;2022-08-11T23:28:00;3.67;;;1.70;;
21233;SDS011;10774;42.178;26.578;2022-08-11T23:30:45;2.38;;;1.88;;
21233;SDS011;10774;42.178;26.578;2022-08-11T23:33:32;3.78;;;1.60;;
21233;SDS011;10774;42.178;26.578;2022-08-11T23:36:19;6.68;;;1.80;;
21233;SDS011;10774;42.178;26.578;2022-08-11T23:39:03;4.47;;;1.92;;
21233;SDS011;10774;42.178;26.578;2022-08-11T23:41:47;6.38;;;1.77;;
21233;SDS011;10774;42.178;26.578;2022-08-11T23:44:31;5.40;;;2.08;;
21233;SDS011;10774;42.178;26.578;2022-08-11T23:47:15;2.53;;;1.60;;
21233;SDS011;10774;42.178;26.578;2022-08-11T23:49:59;4.60;;;2.38;;
21233;SDS011;10774;42.178;26.578;2022-08-11T23:52:43;4.25;;;1.63;;
21233;SDS011;10774;42.178;26.578;2022-08-11T23:55:28;2.80;;;1.90;;
21233;SDS011;10774;42.178;26.578;2022-08-11T23:58:12;3.00;;;1.77;;
